Terminal Aerodrome Forecast
Issued by NWS Memphis, TN

Home | Current Version | Previous Version | Text Only | Print | Product List | Glossary On
Versions: 1 2 3 4 5 6 7 8 9 10 11 12 13 14 15 16 17 18 19 20 21 22 23
000
FTUS44 KMEG 060247 AAB
TAFJBR
TAF AMD
KJBR 060247Z 0603/0624 21008KT P6SM SKC
     FM060600 21006KT 5SM BR SKC
      TEMPO 0609/0613 3SM BR BKN006
     FM061400 21008KT P6SM SCT015
     FM061600 22012G18KT P6SM SCT025 BKN035
     FM061800 21015G23KT P6SM VCTS SCT025CB BKN035=

USA.gov is the U.S. government's official web portal to all federal, state and local government web resources and services.